Time;durP1;ratioP1;P1;durP2;ratioP2;P2;SDS_P1;SDS_P2;PMS_P1;PMS_P2;Temp;Humidity;BMP_temperature;BMP_pressure;BME280_temperature;BME280_humidity;BME280_pressure;Samples;Min_cycle;Max_cycle;Signal;HPM_P1;HPM_P2
2021/12/28 00:00:27;;;;;;;84.18;42.42;;;6.80;99.90;;;;;;4975039;28;20505;-58
2021/12/28 00:02:55;;;;;;;84.72;42.45;;;6.80;99.90;;;;;;4974374;28;20151;-58
2021/12/28 00:05:22;;;;;;;89.07;41.05;;;6.80;99.90;;;;;;4975014;28;20050;-58
2021/12/28 00:07:49;;;;;;;87.65;42.22;;;6.90;99.90;;;;;;4993006;28;20043;-58
2021/12/28 00:10:17;;;;;;;77.95;38.72;;;6.90;99.90;;;;;;4994224;28;20045;-58
2021/12/28 00:12:44;;;;;;;91.90;42.17;;;6.90;99.90;;;;;;4994255;28;20512;-58
2021/12/28 00:18:02;;;;;;;88.35;41.65;;;6.90;99.90;;;;;;4993975;28;20197;-58
2021/12/28 00:20:33;;;;;;;92.30;43.55;;;6.90;99.90;;;;;;4994174;28;20117;-58
2021/12/28 00:23:00;;;;;;;93.38;40.80;;;6.90;99.90;;;;;;4994025;28;20430;-58
2021/12/28 00:25:27;;;;;;;104.22;43.50;;;6.90;99.90;;;;;;4994005;28;20035;-57
2021/12/28 00:27:53;;;;;;;90.40;42.85;;;6.90;99.90;;;;;;4993414;28;20030;-58
2021/12/28 00:30:20;;;;;;;101.28;43.08;;;7.00;99.90;;;;;;4994389;28;20121;-58
2021/12/28 00:32:52;;;;;;;100.97;42.80;;;6.90;99.90;;;;;;4994201;28;20433;-58
2021/12/28 00:35:18;;;;;;;110.10;45.95;;;7.00;99.90;;;;;;4993768;28;20038;-58
2021/12/28 00:37:43;;;;;;;117.20;44.97;;;7.00;99.90;;;;;;4994033;28;20041;-58
2021/12/28 00:40:09;;;;;;;120.53;45.28;;;7.00;99.90;;;;;;4992812;28;20038;-58
2021/12/28 00:42:35;;;;;;;112.85;43.97;;;7.00;99.90;;;;;;4993335;28;20093;-58
2021/12/28 00:45:01;;;;;;;113.25;45.40;;;7.00;99.90;;;;;;4993695;28;20482;-58
2021/12/28 00:47:27;;;;;;;112.10;44.92;;;7.00;99.90;;;;;;4993623;28;20066;-58
2021/12/28 00:49:52;;;;;;;122.13;45.03;;;7.00;99.90;;;;;;4993589;28;20038;-58
2021/12/28 00:52:18;;;;;;;123.85;45.38;;;7.00;99.90;;;;;;4993582;28;20037;-58
2021/12/28 00:54:44;;;;;;;129.93;47.90;;;7.00;99.90;;;;;;4993323;28;20118;-58
2021/12/28 00:57:09;;;;;;;122.47;44.83;;;7.00;99.90;;;;;;4993025;28;20030;-58
2021/12/28 00:59:35;;;;;;;111.07;42.42;;;7.00;99.90;;;;;;4993342;28;20125;-58
2021/12/28 01:02:00;;;;;;;124.85;45.10;;;7.00;99.90;;;;;;4993129;28;20092;-58
2021/12/28 01:04:27;;;;;;;125.78;46.38;;;7.10;99.90;;;;;;4993340;28;20050;-58
2021/12/28 01:06:52;;;;;;;126.22;45.47;;;7.00;99.90;;;;;;4993075;28;20466;-58
2021/12/28 01:09:18;;;;;;;127.18;46.80;;;7.10;99.90;;;;;;4993251;28;20046;-58
2021/12/28 01:11:44;;;;;;;123.45;44.63;;;7.10;99.90;;;;;;4992807;28;20030;-58
2021/12/28 01:14:10;;;;;;;137.45;48.70;;;7.00;99.90;;;;;;4993045;28;20049;-58
2021/12/28 01:16:36;;;;;;;126.43;44.53;;;7.10;99.90;;;;;;4993202;28;20117;-58
2021/12/28 01:19:01;;;;;;;136.75;46.47;;;7.20;99.90;;;;;;4992816;28;20463;-58
2021/12/28 01:21:27;;;;;;;120.22;44.22;;;7.20;99.90;;;;;;4992778;28;20042;-58
2021/12/28 01:23:53;;;;;;;129.27;45.78;;;7.30;99.90;;;;;;4992615;28;20125;-58
2021/12/28 01:26:18;;;;;;;117.32;44.65;;;7.20;99.90;;;;;;4992768;28;20069;-59
2021/12/28 01:28:44;;;;;;;130.30;45.40;;;7.10;99.90;;;;;;4975152;28;20069;-58
2021/12/28 01:31:10;;;;;;;130.90;45.22;;;7.20;99.90;;;;;;4992888;28;20643;-58
2021/12/28 01:33:35;;;;;;;127.53;43.85;;;7.20;99.90;;;;;;4992768;28;20042;-58
2021/12/28 01:36:01;;;;;;;123.18;43.25;;;7.20;99.90;;;;;;4992817;28;20496;-58
2021/12/28 01:38:27;;;;;;;112.45;43.13;;;7.20;99.90;;;;;;4992924;28;20038;-59
2021/12/28 01:40:53;;;;;;;123.55;44.97;;;7.20;99.90;;;;;;4992414;28;20042;-57
2021/12/28 01:43:22;;;;;;;125.78;43.45;;;7.20;99.90;;;;;;4992298;28;20117;-58
2021/12/28 01:45:59;;;;;;;126.40;44.38;;;7.10;99.90;;;;;;4992591;28;20133;-58
2021/12/28 01:48:29;;;;;;;115.88;43.15;;;7.10;99.90;;;;;;4992680;28;20033;-58
2021/12/28 01:51:00;;;;;;;133.95;44.95;;;7.10;99.90;;;;;;4991227;28;20030;-58
2021/12/28 01:53:27;;;;;;;125.28;47.17;;;7.10;99.90;;;;;;4992092;28;20042;-58
2021/12/28 01:55:56;;;;;;;136.02;45.38;;;7.20;99.90;;;;;;4992210;28;20482;-58
2021/12/28 01:58:23;;;;;;;121.55;42.90;;;7.20;99.90;;;;;;4991959;28;20120;-58
2021/12/28 02:00:50;;;;;;;121.68;43.25;;;7.50;99.90;;;;;;4992326;28;20034;-58
2021/12/28 02:03:17;;;;;;;129.43;43.65;;;7.20;99.90;;;;;;4992086;28;20065;-58
2021/12/28 02:05:44;;;;;;;134.10;44.40;;;7.20;99.90;;;;;;4992173;28;20042;-58
2021/12/28 02:08:14;;;;;;;128.77;43.78;;;7.20;99.90;;;;;;4992111;28;20042;-58
2021/12/28 02:10:41;;;;;;;123.18;42.10;;;7.20;99.90;;;;;;4992307;28;20556;-58
2021/12/28 02:13:07;;;;;;;122.82;43.72;;;7.20;99.90;;;;;;4976016;28;20043;-58
2021/12/28 02:15:37;;;;;;;133.60;45.08;;;7.20;99.90;;;;;;4972099;28;20042;-58
2021/12/28 02:18:05;;;;;;;127.20;43.25;;;7.20;99.90;;;;;;4974187;28;20034;-58
2021/12/28 02:20:31;;;;;;;121.28;44.15;;;7.20;99.90;;;;;;4990703;28;20085;-58
2021/12/28 02:22:57;;;;;;;121.18;42.40;;;7.20;99.90;;;;;;4991881;28;20042;-58
2021/12/28 02:25:23;;;;;;;112.72;42.63;;;7.30;99.90;;;;;;4988703;28;20082;-58
2021/12/28 02:27:49;;;;;;;114.97;40.67;;;7.20;99.90;;;;;;4972169;28;20467;-58
2021/12/28 02:30:18;;;;;;;127.38;42.13;;;7.30;99.90;;;;;;4973722;28;20074;-57
2021/12/28 02:32:46;;;;;;;111.65;40.15;;;7.20;99.90;;;;;;4972168;28;20051;-58
2021/12/28 02:35:15;;;;;;;109.13;39.72;;;7.30;99.90;;;;;;4972278;28;20113;-58
2021/12/28 02:37:42;;;;;;;103.40;39.30;;;7.30;99.90;;;;;;4990410;28;20041;-58
2021/12/28 02:40:12;;;;;;;114.25;39.40;;;7.30;99.90;;;;;;4980152;28;20082;-58
2021/12/28 02:42:38;;;;;;;110.90;39.20;;;7.30;99.90;;;;;;4990714;28;20030;-58
2021/12/28 02:45:10;;;;;;;109.80;39.63;;;7.30;99.90;;;;;;4991249;28;20371;-58
2021/12/28 02:47:41;;;;;;;103.93;36.78;;;7.30;99.90;;;;;;4991405;28;20093;-59
2021/12/28 02:50:13;;;;;;;104.55;37.10;;;7.40;99.90;;;;;;4991395;28;20050;-58
2021/12/28 02:52:40;;;;;;;100.50;36.80;;;7.40;99.90;;;;;;4991150;28;20074;-58
2021/12/28 02:55:08;;;;;;;101.22;37.63;;;7.40;99.90;;;;;;4991518;28;20073;-58
2021/12/28 02:57:35;;;;;;;85.22;34.38;;;7.40;99.90;;;;;;4976911;28;20082;-58
2021/12/28 03:00:01;;;;;;;93.63;37.42;;;7.40;99.90;;;;;;4972229;28;20478;-58
2021/12/28 03:02:27;;;;;;;98.60;35.45;;;7.40;99.90;;;;;;4971637;28;20113;-58
2021/12/28 03:04:53;;;;;;;104.32;35.38;;;7.40;99.90;;;;;;4974604;28;20053;-57
2021/12/28 03:07:19;;;;;;;86.93;33.90;;;7.40;99.90;;;;;;4976043;28;20034;-58
2021/12/28 03:09:44;;;;;;;88.75;35.25;;;7.40;99.90;;;;;;4976001;28;20093;-58
2021/12/28 03:12:10;;;;;;;92.63;34.58;;;7.40;99.90;;;;;;4976014;28;20039;-58
2021/12/28 03:14:36;;;;;;;91.60;34.85;;;7.50;99.90;;;;;;4976005;28;20046;-58
2021/12/28 03:17:05;;;;;;;94.07;34.85;;;7.40;99.90;;;;;;4979991;28;20039;-58
2021/12/28 03:19:30;;;;;;;88.50;34.90;;;7.40;99.90;;;;;;4978518;28;20039;-58
2021/12/28 03:21:59;;;;;;;84.00;33.75;;;7.50;99.90;;;;;;4979954;28;20403;-58
2021/12/28 03:24:25;;;;;;;86.32;33.95;;;7.40;99.90;;;;;;4976983;28;20383;-58
2021/12/28 03:26:52;;;;;;;88.85;33.95;;;7.40;99.90;;;;;;4975131;28;20105;-58
2021/12/28 03:29:18;;;;;;;81.85;31.85;;;7.40;99.90;;;;;;4977214;28;20088;-58
2021/12/28 03:31:43;;;;;;;84.32;32.50;;;7.40;99.90;;;;;;4975745;28;20169;-58
2021/12/28 03:34:09;;;;;;;75.50;32.05;;;7.30;99.90;;;;;;4976633;28;20121;-58
2021/12/28 03:36:35;;;;;;;68.65;32.15;;;7.30;99.90;;;;;;4975602;28;20039;-59
2021/12/28 03:39:03;;;;;;;72.32;31.75;;;7.20;99.90;;;;;;4975543;28;20043;-58
2021/12/28 03:41:30;;;;;;;78.70;32.13;;;7.20;99.90;;;;;;4976998;28;20039;-58
2021/12/28 03:43:56;;;;;;;80.75;32.45;;;7.20;99.90;;;;;;4975254;28;20493;-58
2021/12/28 03:46:24;;;;;;;73.85;31.38;;;7.20;99.90;;;;;;4975359;28;20386;-58
2021/12/28 03:48:50;;;;;;;69.78;30.95;;;7.10;99.90;;;;;;4975232;28;20126;-58
2021/12/28 03:51:16;;;;;;;73.10;30.90;;;7.10;99.90;;;;;;4975092;28;20067;-58
2021/12/28 03:53:42;;;;;;;71.43;29.58;;;7.10;99.90;;;;;;4975149;28;20043;-58
2021/12/28 03:56:10;;;;;;;73.45;29.70;;;7.00;99.90;;;;;;4975047;28;20050;-58
2021/12/28 03:58:37;;;;;;;69.93;28.75;;;7.00;99.90;;;;;;4974990;28;20053;-58
2021/12/28 04:01:03;;;;;;;69.22;30.60;;;7.00;99.90;;;;;;4975279;28;20042;-58
2021/12/28 04:03:30;;;;;;;70.47;29.05;;;7.00;99.90;;;;;;4974841;28;20059;-57
2021/12/28 04:05:55;;;;;;;68.97;28.35;;;7.00;99.90;;;;;;4974904;28;20416;-58
2021/12/28 04:08:23;;;;;;;72.03;28.75;;;7.00;99.90;;;;;;4975108;28;20101;-58
2021/12/28 04:11:13;;;;;;;71.82;28.98;;;7.00;99.90;;;;;;4974808;28;20038;-58
2021/12/28 04:13:39;;;;;;;65.10;28.40;;;7.00;99.90;;;;;;4988175;28;20056;-58
2021/12/28 04:16:05;;;;;;;68.75;27.58;;;7.00;99.90;;;;;;4977094;28;20402;-58
2021/12/28 04:18:30;;;;;;;66.88;28.05;;;7.00;99.90;;;;;;4980558;28;20053;-58
2021/12/28 04:20:56;;;;;;;59.63;26.38;;;7.00;99.90;;;;;;4981439;28;20038;-58
2021/12/28 04:23:22;;;;;;;61.40;26.00;;;7.00;99.90;;;;;;4974726;28;20101;-58
2021/12/28 04:25:47;;;;;;;68.20;26.30;;;7.00;99.90;;;;;;4974553;28;20468;-58
2021/12/28 04:28:13;;;;;;;55.55;25.38;;;7.00;99.90;;;;;;4976209;28;20030;-58
2021/12/28 04:30:39;;;;;;;55.88;23.98;;;7.00;99.90;;;;;;4974265;28;20494;-58
2021/12/28 04:33:05;;;;;;;54.60;24.00;;;7.00;99.90;;;;;;4974459;28;20097;-58
2021/12/28 04:35:30;;;;;;;52.85;22.85;;;6.90;99.90;;;;;;4974695;28;20051;-58
2021/12/28 04:37:56;;;;;;;60.22;24.33;;;6.90;99.90;;;;;;4974398;28;20371;-58
2021/12/28 04:40:22;;;;;;;56.22;22.75;;;6.90;99.90;;;;;;4976552;28;20118;-57
2021/12/28 04:42:48;;;;;;;49.05;22.95;;;6.90;99.90;;;;;;4973708;28;20535;-58
2021/12/28 04:45:15;;;;;;;56.08;22.92;;;7.10;99.90;;;;;;4974074;28;20042;-58
2021/12/28 04:47:42;;;;;;;59.15;22.88;;;6.90;99.90;;;;;;4976877;28;20409;-58
2021/12/28 04:50:09;;;;;;;55.85;22.52;;;6.90;99.90;;;;;;4977825;28;20046;-58
2021/12/28 04:52:37;;;;;;;52.50;21.15;;;7.00;99.90;;;;;;4975876;28;20490;-58
2021/12/28 04:55:06;;;;;;;51.50;21.35;;;6.90;99.90;;;;;;4977388;28;20078;-58
2021/12/28 04:57:32;;;;;;;45.95;19.92;;;7.00;99.90;;;;;;4978717;28;20045;-58
2021/12/28 04:59:58;;;;;;;45.65;19.55;;;7.00;99.90;;;;;;4981347;28;20026;-58
2021/12/28 05:02:24;;;;;;;45.80;19.10;;;7.00;99.90;;;;;;4963267;28;20054;-58
2021/12/28 05:04:49;;;;;;;44.33;18.58;;;7.00;99.90;;;;;;4978702;28;20427;-58
2021/12/28 05:07:15;;;;;;;48.28;19.73;;;7.00;99.90;;;;;;4974984;28;20073;-58
2021/12/28 05:09:41;;;;;;;41.10;17.90;;;7.00;99.90;;;;;;4976582;28;20039;-58
2021/12/28 05:12:07;;;;;;;40.85;18.67;;;7.00;99.90;;;;;;4977615;28;20794;-58
2021/12/28 05:14:33;;;;;;;46.33;17.92;;;7.00;99.90;;;;;;4981429;28;20501;-58
2021/12/28 05:16:59;;;;;;;40.08;17.65;;;7.00;99.90;;;;;;4978872;28;20043;-58
2021/12/28 05:19:25;;;;;;;44.03;17.08;;;7.00;99.90;;;;;;4975468;28;20038;-58
2021/12/28 05:21:50;;;;;;;41.30;15.90;;;7.00;99.90;;;;;;4976989;28;20046;-58
2021/12/28 05:24:16;;;;;;;40.30;16.73;;;7.00;99.90;;;;;;4978635;28;20043;-58
2021/12/28 05:26:42;;;;;;;35.08;15.25;;;7.00;99.90;;;;;;4978786;28;20070;-58
2021/12/28 05:29:07;;;;;;;36.78;15.90;;;7.00;99.90;;;;;;4982530;28;20034;-58
2021/12/28 05:31:33;;;;;;;41.35;15.63;;;7.20;99.90;;;;;;4974380;28;21944;-58
2021/12/28 05:33:59;;;;;;;41.78;15.40;;;7.00;99.90;;;;;;4975219;28;20045;-58
2021/12/28 05:36:25;;;;;;;37.85;15.85;;;7.00;99.90;;;;;;4977092;28;20441;-58
2021/12/28 05:38:51;;;;;;;37.92;14.98;;;7.00;99.90;;;;;;4978948;28;20052;-58
2021/12/28 05:41:17;;;;;;;34.10;15.55;;;7.00;99.90;;;;;;4980361;28;20093;-58
2021/12/28 05:43:42;;;;;;;40.72;15.23;;;7.00;99.90;;;;;;4980668;28;20047;-58
2021/12/28 05:46:08;;;;;;;36.03;16.10;;;7.00;99.90;;;;;;4974253;28;20046;-58
2021/12/28 05:48:34;;;;;;;40.88;16.02;;;7.00;99.90;;;;;;4974165;28;20038;-57
2021/12/28 05:50:59;;;;;;;40.65;16.20;;;7.00;99.90;;;;;;4973086;28;20117;-58
2021/12/28 05:53:25;;;;;;;34.67;16.63;;;7.00;99.90;;;;;;4972838;28;20557;-58
2021/12/28 05:55:51;;;;;;;36.95;15.98;;;7.00;99.90;;;;;;4972822;28;20129;-58
2021/12/28 05:58:17;;;;;;;37.88;16.42;;;7.00;99.90;;;;;;4955169;28;20038;-58
2021/12/28 06:00:43;;;;;;;38.13;16.10;;;7.00;99.90;;;;;;4973244;28;20038;-58
2021/12/28 06:03:08;;;;;;;36.97;15.27;;;7.00;99.90;;;;;;4972747;28;20394;-58
2021/12/28 06:05:34;;;;;;;31.73;15.10;;;7.00;99.90;;;;;;4972716;28;20074;-58
2021/12/28 06:08:00;;;;;;;42.08;16.63;;;7.00;99.90;;;;;;4972449;28;20042;-58
2021/12/28 06:10:26;;;;;;;32.42;15.43;;;7.00;99.90;;;;;;4972631;28;20073;-58
2021/12/28 06:12:51;;;;;;;37.22;14.23;;;7.00;99.90;;;;;;4972733;28;20039;-57
2021/12/28 06:15:17;;;;;;;36.17;15.70;;;6.90;99.90;;;;;;4972479;28;20098;-58
2021/12/28 06:17:43;;;;;;;33.90;14.88;;;6.90;99.90;;;;;;4972767;28;20038;-59
2021/12/28 06:20:09;;;;;;;37.53;14.68;;;6.90;99.90;;;;;;4972562;28;20050;-58
2021/12/28 06:22:35;;;;;;;36.67;14.43;;;6.90;99.90;;;;;;4972539;28;20483;-58
2021/12/28 06:25:01;;;;;;;36.20;14.27;;;6.90;99.90;;;;;;4972165;28;20088;-58
2021/12/28 06:27:27;;;;;;;35.33;13.77;;;6.90;99.90;;;;;;4971989;28;20070;-58
2021/12/28 06:29:53;;;;;;;30.58;13.73;;;6.80;99.90;;;;;;4972101;28;20136;-57
2021/12/28 06:32:18;;;;;;;36.72;15.30;;;6.80;99.90;;;;;;4972317;28;20027;-58
2021/12/28 06:34:44;;;;;;;38.50;14.55;;;6.80;99.90;;;;;;4972011;28;20100;-58
2021/12/28 06:37:10;;;;;;;36.13;14.77;;;6.80;99.90;;;;;;4972413;28;20043;-58
2021/12/28 06:39:36;;;;;;;35.30;14.50;;;6.80;99.90;;;;;;4972415;28;20136;-58
2021/12/28 06:42:02;;;;;;;34.35;15.10;;;6.80;99.90;;;;;;4972136;28;20130;-58
2021/12/28 06:44:27;;;;;;;27.73;14.05;;;6.80;99.90;;;;;;4972317;28;20121;-58
2021/12/28 06:46:53;;;;;;;37.03;13.90;;;6.80;99.90;;;;;;4972074;28;20210;-58
2021/12/28 06:49:19;;;;;;;32.63;13.85;;;6.80;99.90;;;;;;4972264;28;20039;-58
2021/12/28 06:51:45;;;;;;;36.05;13.60;;;6.80;99.90;;;;;;4972200;28;20046;-58
2021/12/28 06:54:11;;;;;;;34.05;13.73;;;6.80;99.90;;;;;;4972067;28;20039;-58
2021/12/28 06:56:37;;;;;;;33.35;13.88;;;6.80;99.90;;;;;;4972105;28;20481;-58
2021/12/28 06:59:03;;;;;;;32.10;12.88;;;6.80;99.90;;;;;;4971182;28;20035;-58
2021/12/28 07:01:28;;;;;;;34.33;13.77;;;6.90;99.90;;;;;;4972286;28;20108;-58
2021/12/28 07:03:55;;;;;;;35.60;12.90;;;6.90;99.90;;;;;;4971765;28;20612;-58
2021/12/28 07:06:23;;;;;;;33.95;12.65;;;6.90;99.90;;;;;;4971980;28;20043;-57
2021/12/28 07:08:49;;;;;;;33.60;12.82;;;6.90;99.90;;;;;;4971731;28;20513;-58
2021/12/28 07:11:16;;;;;;;33.63;12.55;;;6.90;99.90;;;;;;4972268;28;20541;-57
2021/12/28 07:13:42;;;;;;;32.92;12.57;;;6.90;99.90;;;;;;4954296;28;20055;-58
2021/12/28 07:16:08;;;;;;;29.98;11.65;;;6.90;99.90;;;;;;4971682;28;20375;-58
2021/12/28 07:18:34;;;;;;;35.08;12.15;;;7.00;99.90;;;;;;4954435;28;20045;-58
2021/12/28 07:21:02;;;;;;;31.42;11.70;;;6.90;99.90;;;;;;4954251;28;20050;-58
2021/12/28 07:23:28;;;;;;;36.78;12.13;;;7.00;99.90;;;;;;4971695;28;20043;-58
2021/12/28 07:25:54;;;;;;;32.95;10.85;;;7.00;99.90;;;;;;4972372;28;20043;-58
2021/12/28 07:28:21;;;;;;;35.00;11.65;;;7.00;99.90;;;;;;4971482;28;20126;-58
2021/12/28 07:30:47;;;;;;;32.58;12.18;;;7.00;99.90;;;;;;4971864;28;20457;-58
2021/12/28 07:33:13;;;;;;;33.40;11.80;;;7.00;99.90;;;;;;4971814;28;20417;-58
2021/12/28 07:35:39;;;;;;;32.20;11.75;;;7.00;99.90;;;;;;4971680;28;20472;-58
2021/12/28 07:38:05;;;;;;;36.17;11.63;;;7.10;99.90;;;;;;4971606;28;20606;-58
2021/12/28 07:40:31;;;;;;;42.90;11.57;;;7.10;99.90;;;;;;4971753;28;20137;-58
2021/12/28 07:42:57;;;;;;;32.65;11.93;;;7.10;99.90;;;;;;4971665;28;20045;-58
2021/12/28 07:45:22;;;;;;;33.30;10.65;;;7.10;99.90;;;;;;4971630;28;20046;-58
2021/12/28 07:47:48;;;;;;;33.90;11.30;;;7.20;99.90;;;;;;4983831;28;20398;-58
2021/12/28 07:50:16;;;;;;;34.15;11.30;;;7.20;99.90;;;;;;4984919;28;20034;-58
2021/12/28 07:52:43;;;;;;;35.65;10.90;;;7.20;99.90;;;;;;4985359;28;20042;-57
2021/12/28 07:55:10;;;;;;;31.17;11.00;;;7.30;99.90;;;;;;4990316;28;20394;-58
2021/12/28 07:57:36;;;;;;;37.78;11.57;;;7.30;99.90;;;;;;4989460;28;20038;-58
2021/12/28 08:00:09;;;;;;;37.00;10.50;;;7.30;99.90;;;;;;4990507;28;20033;-58
2021/12/28 08:02:35;;;;;;;34.67;11.85;;;7.40;99.90;;;;;;4985551;28;20500;-58
2021/12/28 08:05:01;;;;;;;37.47;12.00;;;7.30;99.90;;;;;;4989595;28;20038;-58
2021/12/28 08:07:26;;;;;;;35.70;11.43;;;7.40;99.90;;;;;;4988773;28;20608;-58
2021/12/28 08:09:52;;;;;;;32.72;11.02;;;7.40;99.90;;;;;;4989983;28;20030;-58
2021/12/28 08:12:18;;;;;;;33.72;10.75;;;7.40;99.90;;;;;;4990199;28;20031;-58
2021/12/28 08:14:43;;;;;;;31.20;10.93;;;7.50;99.90;;;;;;4989365;28;20030;-58
2021/12/28 08:17:09;;;;;;;35.70;11.00;;;7.40;99.90;;;;;;4987766;28;20045;-58
2021/12/28 08:19:36;;;;;;;33.15;10.80;;;7.40;99.90;;;;;;4987049;28;20034;-58
2021/12/28 08:22:02;;;;;;;37.45;10.98;;;7.30;99.90;;;;;;4990038;28;20034;-58
2021/12/28 08:24:29;;;;;;;31.92;11.57;;;7.30;99.90;;;;;;4988068;28;20043;-58
2021/12/28 08:26:55;;;;;;;39.95;11.65;;;7.30;99.90;;;;;;4988022;28;20043;-58
2021/12/28 08:29:20;;;;;;;29.30;11.05;;;7.20;99.90;;;;;;4986245;28;20034;-58
2021/12/28 08:31:46;;;;;;;33.15;12.30;;;7.30;99.90;;;;;;4987289;28;20034;-58
2021/12/28 08:34:12;;;;;;;32.75;12.10;;;7.30;99.90;;;;;;4985926;28;20031;-58
2021/12/28 08:36:37;;;;;;;38.25;12.98;;;7.30;99.90;;;;;;4973170;28;20202;-58
2021/12/28 08:39:04;;;;;;;40.05;13.75;;;7.50;99.90;;;;;;4978976;28;20047;-58
2021/12/28 08:41:30;;;;;;;41.47;13.57;;;7.30;99.90;;;;;;4980498;28;20050;-58
2021/12/28 08:43:56;;;;;;;34.33;13.52;;;7.50;99.90;;;;;;4983374;28;20125;-58
2021/12/28 08:46:21;;;;;;;31.75;13.80;;;7.40;99.90;;;;;;4980525;28;20068;-58
2021/12/28 08:48:47;;;;;;;37.75;15.55;;;7.50;99.90;;;;;;4989140;28;20053;-58
2021/12/28 08:51:14;;;;;;;43.33;15.25;;;7.50;99.90;;;;;;4984944;28;20486;-58
2021/12/28 08:53:39;;;;;;;41.05;15.60;;;7.50;99.90;;;;;;4981296;28;20447;-58
2021/12/28 08:56:05;;;;;;;44.05;17.17;;;7.60;99.90;;;;;;4980619;28;20117;-58
2021/12/28 08:58:32;;;;;;;38.40;18.50;;;7.60;99.90;;;;;;4981671;28;20556;-58
2021/12/28 09:00:57;;;;;;;39.75;17.30;;;7.60;99.90;;;;;;4985652;28;20520;-59
2021/12/28 09:03:23;;;;;;;41.63;17.45;;;7.60;99.90;;;;;;4984445;28;20055;-58
2021/12/28 09:05:49;;;;;;;38.08;17.50;;;7.60;99.90;;;;;;4978230;28;20043;-58
2021/12/28 09:08:17;;;;;;;37.75;18.40;;;7.70;99.90;;;;;;4983964;28;20100;-58
2021/12/28 09:10:44;;;;;;;47.97;18.67;;;7.70;99.90;;;;;;4979653;28;20130;-58
2021/12/28 09:13:11;;;;;;;47.83;18.45;;;7.70;99.90;;;;;;4983458;28;20049;-58
2021/12/28 09:15:37;;;;;;;38.22;17.95;;;7.80;99.90;;;;;;4992949;28;20100;-58
2021/12/28 09:18:03;;;;;;;50.33;19.25;;;7.70;99.90;;;;;;4992907;28;20073;-58
2021/12/28 09:20:29;;;;;;;46.83;17.70;;;7.80;99.90;;;;;;4993051;28;20413;-58
2021/12/28 09:22:56;;;;;;;47.47;19.02;;;7.70;99.90;;;;;;4993244;28;20045;-58
2021/12/28 09:25:23;;;;;;;44.45;19.15;;;7.80;99.90;;;;;;4993072;28;20468;-58
2021/12/28 09:27:50;;;;;;;39.90;18.45;;;7.80;99.90;;;;;;4992521;28;20490;-58
2021/12/28 09:30:17;;;;;;;40.38;18.40;;;7.80;99.90;;;;;;4991376;28;20042;-58
2021/12/28 09:32:43;;;;;;;43.30;18.98;;;7.80;99.90;;;;;;4973622;28;20042;-58
2021/12/28 09:35:10;;;;;;;46.72;18.95;;;7.80;99.90;;;;;;4973559;28;20039;-58
2021/12/28 09:37:36;;;;;;;45.13;18.58;;;7.90;99.90;;;;;;4956548;28;20074;-58
2021/12/28 09:40:07;;;;;;;48.85;20.25;;;7.80;99.90;;;;;;4974700;28;20711;-58
2021/12/28 09:42:33;;;;;;;44.88;19.30;;;7.90;99.90;;;;;;4986773;28;20372;-58
2021/12/28 09:44:59;;;;;;;39.38;19.35;;;8.10;99.90;;;;;;4973111;28;20089;-58
2021/12/28 09:47:25;;;;;;;44.75;20.80;;;7.90;99.90;;;;;;4973182;28;20038;-58
2021/12/28 09:49:51;;;;;;;43.97;19.95;;;7.90;99.90;;;;;;4972841;28;20110;-58
2021/12/28 09:52:19;;;;;;;38.78;19.75;;;7.90;99.90;;;;;;4973313;28;20393;-58
2021/12/28 09:54:45;;;;;;;45.00;20.73;;;8.00;99.90;;;;;;4973029;28;20450;-58
2021/12/28 09:57:18;;;;;;;43.25;19.45;;;8.00;99.90;;;;;;4972523;28;20078;-57
2021/12/28 09:59:45;;;;;;;44.45;20.60;;;8.00;99.90;;;;;;4991537;28;20077;-58
2021/12/28 10:02:12;;;;;;;40.00;20.17;;;8.20;99.90;;;;;;4991878;28;20120;-58
2021/12/28 10:04:55;;;;;;;41.92;20.73;;;8.10;99.90;;;;;;4992115;28;20053;-58
2021/12/28 10:07:27;;;;;;;41.60;18.95;;;8.10;99.90;;;;;;4991430;28;20030;-58
2021/12/28 10:09:54;;;;;;;37.03;19.27;;;8.10;99.90;;;;;;4990935;28;20034;-58
2021/12/28 10:12:32;;;;;;;36.67;18.45;;;8.20;99.90;;;;;;4990977;28;20482;-58
2021/12/28 10:15:02;;;;;;;33.53;18.65;;;8.20;99.90;;;;;;4991634;28;20045;-59
2021/12/28 10:17:32;;;;;;;38.60;18.80;;;8.20;99.90;;;;;;4991780;28;20355;-58
2021/12/28 10:19:59;;;;;;;42.40;19.27;;;8.20;99.90;;;;;;4991344;28;20042;-58
2021/12/28 10:22:32;;;;;;;42.15;18.23;;;8.30;99.90;;;;;;4991581;28;20512;-58
2021/12/28 10:25:00;;;;;;;34.97;17.87;;;8.30;99.90;;;;;;4991403;28;20038;-58
2021/12/28 10:27:29;;;;;;;37.10;17.25;;;8.30;99.90;;;;;;4989659;28;20812;-58
2021/12/28 10:30:23;;;;;;;35.00;17.13;;;8.30;99.90;;;;;;4990822;28;20113;-58
2021/12/28 10:32:52;;;;;;;34.70;18.10;;;8.30;99.90;;;;;;4983903;28;20117;-57
2021/12/28 10:35:21;;;;;;;34.08;16.38;;;8.40;99.90;;;;;;4990858;28;20042;-58
2021/12/28 10:37:54;;;;;;;28.33;16.92;;;8.30;99.90;;;;;;4990842;28;20475;-59
2021/12/28 10:40:41;;;;;;;36.05;17.13;;;8.30;99.90;;;;;;4989565;28;20061;-58
2021/12/28 10:43:10;;;;;;;28.25;15.18;;;8.40;99.90;;;;;;4989577;28;20053;-58
2021/12/28 10:45:38;;;;;;;29.15;15.82;;;8.50;99.90;;;;;;4990688;28;20045;-58
2021/12/28 10:48:09;;;;;;;27.30;14.30;;;8.40;99.90;;;;;;4989988;28;20034;-58
2021/12/28 10:50:39;;;;;;;29.63;14.40;;;8.40;99.90;;;;;;4991319;28;20510;-58
2021/12/28 10:53:11;;;;;;;26.65;13.50;;;8.40;99.90;;;;;;4991519;28;20042;-57
2021/12/28 10:55:40;;;;;;;29.27;14.80;;;8.40;99.90;;;;;;4991238;28;20038;-59
2021/12/28 10:58:06;;;;;;;25.38;13.88;;;8.40;99.90;;;;;;4990874;28;20046;-57
2021/12/28 11:00:43;;;;;;;28.65;13.20;;;8.50;99.90;;;;;;4990800;28;20101;-59
2021/12/28 11:03:17;;;;;;;33.22;17.02;;;8.50;99.90;;;;;;4991008;28;21586;-58
2021/12/28 11:05:48;;;;;;;22.45;12.00;;;8.50;99.90;;;;;;4991184;28;20561;-58
2021/12/28 11:08:15;;;;;;;18.33;10.40;;;8.50;99.90;;;;;;4973970;28;20426;-58
2021/12/28 11:10:49;;;;;;;22.17;12.10;;;8.50;99.90;;;;;;4989524;28;20096;-58
2021/12/28 11:13:19;;;;;;;23.35;11.48;;;8.60;99.90;;;;;;4991547;28;20034;-58
2021/12/28 11:15:46;;;;;;;17.33;10.20;;;8.60;99.90;;;;;;4991233;28;20046;-58
2021/12/28 11:18:23;;;;;;;17.65;10.10;;;8.60;99.90;;;;;;4991342;28;20102;-58
2021/12/28 11:20:52;;;;;;;17.90;10.48;;;8.60;99.90;;;;;;4990061;28;20393;-58
2021/12/28 11:23:21;;;;;;;15.15;9.57;;;8.70;99.90;;;;;;4989632;28;20113;-58
2021/12/28 11:26:00;;;;;;;17.75;8.77;;;8.60;99.90;;;;;;4960732;28;20030;-58
2021/12/28 11:28:27;;;;;;;15.95;8.77;;;8.60;99.90;;;;;;4994335;28;20516;-57
2021/12/28 11:31:04;;;;;;;14.45;8.65;;;8.60;99.90;;;;;;4982869;28;20070;-58
2021/12/28 11:33:44;;;;;;;14.80;8.43;;;8.70;99.90;;;;;;4993555;28;20490;-58
2021/12/28 11:36:11;;;;;;;13.65;8.05;;;8.70;99.90;;;;;;4977492;28;20097;-58
2021/12/28 11:38:37;;;;;;;14.88;8.75;;;8.70;99.90;;;;;;4974909;28;20053;-59
2021/12/28 11:41:04;;;;;;;13.07;8.18;;;8.70;99.90;;;;;;4974790;28;20054;-58
2021/12/28 11:43:33;;;;;;;14.43;8.60;;;8.70;99.90;;;;;;4974581;28;20485;-59
2021/12/28 11:45:59;;;;;;;16.67;8.85;;;8.70;99.90;;;;;;4974933;28;20114;-58
2021/12/28 11:48:25;;;;;;;13.52;8.73;;;8.70;99.90;;;;;;4974432;28;20118;-59
2021/12/28 11:50:51;;;;;;;13.23;8.23;;;8.80;99.90;;;;;;4975291;28;20046;-58
2021/12/28 11:53:17;;;;;;;17.30;10.18;;;8.80;99.90;;;;;;4974548;28;20054;-59
2021/12/28 11:55:43;;;;;;;15.77;9.88;;;8.80;99.90;;;;;;4974637;28;20038;-58
2021/12/28 11:58:09;;;;;;;15.60;9.40;;;8.80;99.90;;;;;;4974504;28;20049;-58
2021/12/28 12:00:43;;;;;;;16.75;9.82;;;8.80;99.90;;;;;;4974697;28;20050;-58
2021/12/28 12:03:33;;;;;;;15.32;8.93;;;8.80;99.90;;;;;;4974063;28;20055;-59
2021/12/28 12:05:59;;;;;;;15.73;9.25;;;8.90;99.90;;;;;;4992976;28;20077;-58
2021/12/28 12:08:25;;;;;;;16.13;9.98;;;8.90;99.90;;;;;;4991973;28;20051;-58
2021/12/28 12:11:02;;;;;;;16.38;10.43;;;9.00;99.90;;;;;;4976381;28;20482;-58
2021/12/28 12:13:29;;;;;;;17.23;10.25;;;8.80;99.90;;;;;;4985243;28;20047;-58
2021/12/28 12:15:59;;;;;;;14.10;9.48;;;8.90;99.90;;;;;;4986497;28;20636;-58
2021/12/28 12:18:43;;;;;;;16.17;10.70;;;8.90;99.90;;;;;;4973941;28;20411;-58
2021/12/28 12:21:16;;;;;;;15.52;10.25;;;9.00;99.90;;;;;;4979911;28;20125;-58
2021/12/28 12:23:51;;;;;;;16.00;11.02;;;8.90;99.90;;;;;;4974744;28;20059;-59
2021/12/28 12:26:29;;;;;;;15.55;9.95;;;9.00;99.90;;;;;;4990788;28;20508;-59
2021/12/28 12:28:55;;;;;;;15.75;9.77;;;9.00;99.90;;;;;;4991122;28;20034;-59
2021/12/28 12:31:27;;;;;;;17.58;10.68;;;9.00;99.90;;;;;;4991726;28;20049;-58
2021/12/28 12:33:54;;;;;;;18.65;10.63;;;9.00;99.90;;;;;;4992864;28;20048;-58
2021/12/28 12:36:37;;;;;;;18.75;10.88;;;9.00;99.90;;;;;;4992546;28;20494;-58
2021/12/28 12:39:05;;;;;;;16.98;10.65;;;9.00;99.90;;;;;;4990448;28;20045;-58